Latest  Newer  Older  Last 2 hours animation  Current image  Latest image 
Rain/snow radar  Infrared sat images 
Real-time lightning map

All time is UTC (add 2 hours to UTC in wintertime, 3 hours to UTC in DST for Latvia local time)

2021/05/10 04:20 EVRA 100420Z 18011KT CAVOK 12/03 Q1017 NOSIG
2021/05/10 04:20 EVLA 100420Z AUTO 16009KT 9999 NCD 13/05 Q1013
2021/05/10 04:20 EVVA 100420Z AUTO 16005KT CAVOK 12/07 Q1013
2021/05/10 04:20 EYKA 100420Z 15011KT 120V190 CAVOK 12/02 Q1019
2021/05/10 04:20 EYPA 100420Z 14010KT CAVOK 12/05 Q1015
2021/05/10 04:20 EYSA 100420Z 17013KT CAVOK 11/03 Q1018 BLU NOSIG
2021/05/10 04:20 EYVI 100420Z 17010KT CAVOK 10/01 Q1021 NOSIG
2021/05/10 04:20 EEKA 100420Z 17007KT CAVOK 10/06 Q1013
2021/05/10 04:20 EEKE 100420Z 21004KT 180V250 CAVOK 09/06 Q1014

2021/05/10 04:20 EETN 100420Z 19012KT CAVOK 11/05 Q1013 NOSIG
2021/05/10 04:20 EETU 100420Z AUTO 18011KT 9999 OVC088/// 12/02 Q1017
   RIGA AIRPORT     EVRA               56 55N  023 58E   10   X     T          6 LV
   LIEPAJA INTL     EVLA        26406  56 31N  021 06E    4   X                8 LV
   VENTPILS         EVVA               57 21N  021 33E    6   X                8 LV
   KAUNAS           EYKA               54 54N  023 55E   77   X     T          6 LT
   PALANGA INTL     EYPA               55 55N  021 03E   10   X                6 LT
   SIAULIAI INTL    EYSA               55 54N  023 24E  135   X     T          6 LT
   VILNIUS INTL     EYVI        26730  54 38N  025 17E  197   X     T          6 LT
   KARDLA           EEKA        26116  58 59N  022 50E    4   X                8 EE
   KURESSAARE       EEKE               58 14N  022 31E    4   X                8 EE
   PARNU            EEPU               58 25N  024 28E   14   X                8 EE
   TALLINN          EETN        26038  59 24N  024 49E   40   X     T          8 EE
   TARTU            EETU               58 19N  026 41E   67   X                8 EE

cloud coverage image from sat24.com and METAR data from weather.noaa.gov